sensor_id;sensor_type;location;lat;lon;timestamp;temperature;humidity
18218;DHT22;9234;49.344;11.120;2023-02-21T00:01:43;3.50;99.90
18218;DHT22;9234;49.344;11.120;2023-02-21T00:04:29;3.50;99.90
18218;DHT22;9234;49.344;11.120;2023-02-21T00:07:15;3.50;99.90
18218;DHT22;9234;49.344;11.120;2023-02-21T00:10:01;3.50;99.90
18218;DHT22;9234;49.344;11.120;2023-02-21T00:12:46;3.40;99.90
18218;DHT22;9234;49.344;11.120;2023-02-21T00:15:33;3.40;99.90
18218;DHT22;9234;49.344;11.120;2023-02-21T00:18:19;3.40;99.90
18218;DHT22;9234;49.344;11.120;2023-02-21T00:21:05;3.30;99.90
18218;DHT22;9234;49.344;11.120;2023-02-21T00:23:51;3.30;99.90
18218;DHT22;9234;49.344;11.120;2023-02-21T00:26:37;3.30;99.90
18218;DHT22;9234;49.344;11.120;2023-02-21T00:29:23;3.20;99.90
18218;DHT22;9234;49.344;11.120;2023-02-21T00:32:10;3.20;99.90
18218;DHT22;9234;49.344;11.120;2023-02-21T00:34:56;3.20;99.90
18218;DHT22;9234;49.344;11.120;2023-02-21T00:37:42;3.20;99.90
18218;DHT22;9234;49.344;11.120;2023-02-21T00:40:29;3.20;99.90
18218;DHT22;9234;49.344;11.120;2023-02-21T00:43:14;3.20;99.90
18218;DHT22;9234;49.344;11.120;2023-02-21T00:46:02;3.20;99.90
18218;DHT22;9234;49.344;11.120;2023-02-21T00:48:50;3.10;99.90
18218;DHT22;9234;49.344;11.120;2023-02-21T00:51:36;3.10;99.90
18218;DHT22;9234;49.344;11.120;2023-02-21T00:54:21;3.10;99.90
18218;DHT22;9234;49.344;11.120;2023-02-21T00:57:07;3.10;99.90
18218;DHT22;9234;49.344;11.120;2023-02-21T00:59:53;3.00;99.90
18218;DHT22;9234;49.344;11.120;2023-02-21T01:02:40;3.00;99.90
18218;DHT22;9234;49.344;11.120;2023-02-21T01:05:27;3.00;99.90
18218;DHT22;9234;49.344;11.120;2023-02-21T01:08:13;2.90;99.90
18218;DHT22;9234;49.344;11.120;2023-02-21T01:10:59;2.90;99.90
18218;DHT22;9234;49.344;11.120;2023-02-21T01:13:45;2.90;99.90
18218;DHT22;9234;49.344;11.120;2023-02-21T01:16:32;2.80;99.90
18218;DHT22;9234;49.344;11.120;2023-02-21T01:19:21;2.80;99.90
18218;DHT22;9234;49.344;11.120;2023-02-21T01:22:11;2.80;99.90
18218;DHT22;9234;49.344;11.120;2023-02-21T01:24:57;2.70;99.90
18218;DHT22;9234;49.344;11.120;2023-02-21T01:27:43;2.70;99.90
18218;DHT22;9234;49.344;11.120;2023-02-21T01:30:29;2.70;99.90
18218;DHT22;9234;49.344;11.120;2023-02-21T01:33:14;2.70;99.90
18218;DHT22;9234;49.344;11.120;2023-02-21T01:36:04;2.60;99.90
18218;DHT22;9234;49.344;11.120;2023-02-21T01:38:52;2.60;99.90
18218;DHT22;9234;49.344;11.120;2023-02-21T01:41:38;2.60;99.90
18218;DHT22;9234;49.344;11.120;2023-02-21T01:44:31;2.60;99.90
18218;DHT22;9234;49.344;11.120;2023-02-21T01:47:22;2.50;99.90
18218;DHT22;9234;49.344;11.120;2023-02-21T01:50:17;2.50;99.90
18218;DHT22;9234;49.344;11.120;2023-02-21T01:53:08;2.50;99.90
18218;DHT22;9234;49.344;11.120;2023-02-21T01:55:59;2.40;99.90
18218;DHT22;9234;49.344;11.120;2023-02-21T01:58:48;2.40;99.90
18218;DHT22;9234;49.344;11.120;2023-02-21T02:01:41;2.40;99.90
18218;DHT22;9234;49.344;11.120;2023-02-21T02:04:32;2.40;99.90
18218;DHT22;9234;49.344;11.120;2023-02-21T02:07:19;2.30;99.90
18218;DHT22;9234;49.344;11.120;2023-02-21T02:10:06;2.30;99.90
18218;DHT22;9234;49.344;11.120;2023-02-21T02:13:10;2.30;99.90
18218;DHT22;9234;49.344;11.120;2023-02-21T02:15:57;2.30;99.90
18218;DHT22;9234;49.344;11.120;2023-02-21T02:18:59;2.20;99.90
18218;DHT22;9234;49.344;11.120;2023-02-21T02:22:07;2.20;99.90
18218;DHT22;9234;49.344;11.120;2023-02-21T02:25:14;2.20;99.90
18218;DHT22;9234;49.344;11.120;2023-02-21T02:28:07;2.20;99.90
18218;DHT22;9234;49.344;11.120;2023-02-21T02:31:04;2.10;99.90
18218;DHT22;9234;49.344;11.120;2023-02-21T02:37:17;2.10;99.90
18218;DHT22;9234;49.344;11.120;2023-02-21T02:39:56;2.00;99.90
18218;DHT22;9234;49.344;11.120;2023-02-21T02:42:37;2.00;99.90
18218;DHT22;9234;49.344;11.120;2023-02-21T02:45:24;2.00;99.90
18218;DHT22;9234;49.344;11.120;2023-02-21T02:48:02;2.00;99.90
18218;DHT22;9234;49.344;11.120;2023-02-21T02:50:38;2.00;99.90
18218;DHT22;9234;49.344;11.120;2023-02-21T02:53:07;1.90;99.90
18218;DHT22;9234;49.344;11.120;2023-02-21T02:55:40;1.90;99.90
18218;DHT22;9234;49.344;11.120;2023-02-21T02:58:13;1.90;99.90
18218;DHT22;9234;49.344;11.120;2023-02-21T03:00:47;1.90;99.90
18218;DHT22;9234;49.344;11.120;2023-02-21T03:03:50;1.90;99.90
18218;DHT22;9234;49.344;11.120;2023-02-21T03:06:34;1.80;99.90
18218;DHT22;9234;49.344;11.120;2023-02-21T03:09:12;1.80;99.90
18218;DHT22;9234;49.344;11.120;2023-02-21T03:11:58;1.80;99.90
18218;DHT22;9234;49.344;11.120;2023-02-21T03:14:35;1.80;99.90
18218;DHT22;9234;49.344;11.120;2023-02-21T03:17:10;1.70;99.90
18218;DHT22;9234;49.344;11.120;2023-02-21T03:19:43;1.70;99.90
18218;DHT22;9234;49.344;11.120;2023-02-21T03:22:18;1.70;99.90
18218;DHT22;9234;49.344;11.120;2023-02-21T03:24:48;1.70;99.90
18218;DHT22;9234;49.344;11.120;2023-02-21T03:27:20;1.70;99.90
18218;DHT22;9234;49.344;11.120;2023-02-21T03:30:07;1.60;99.90
18218;DHT22;9234;49.344;11.120;2023-02-21T03:32:40;1.60;99.90
18218;DHT22;9234;49.344;11.120;2023-02-21T03:35:12;1.60;99.90
18218;DHT22;9234;49.344;11.120;2023-02-21T03:37:45;1.60;99.90
18218;DHT22;9234;49.344;11.120;2023-02-21T03:40:16;1.60;99.90
18218;DHT22;9234;49.344;11.120;2023-02-21T03:42:49;1.60;99.90
18218;DHT22;9234;49.344;11.120;2023-02-21T03:45:18;1.60;99.90
18218;DHT22;9234;49.344;11.120;2023-02-21T03:48:01;1.50;99.90
18218;DHT22;9234;49.344;11.120;2023-02-21T03:50:31;1.50;99.90
18218;DHT22;9234;49.344;11.120;2023-02-21T03:53:01;1.50;99.90
18218;DHT22;9234;49.344;11.120;2023-02-21T03:55:31;1.50;99.90
18218;DHT22;9234;49.344;11.120;2023-02-21T03:58:03;1.50;99.90
18218;DHT22;9234;49.344;11.120;2023-02-21T04:00:34;1.50;99.90
18218;DHT22;9234;49.344;11.120;2023-02-21T04:03:02;1.50;99.90
18218;DHT22;9234;49.344;11.120;2023-02-21T04:05:39;1.40;99.90
18218;DHT22;9234;49.344;11.120;2023-02-21T04:08:10;1.40;99.90
18218;DHT22;9234;49.344;11.120;2023-02-21T04:10:38;1.40;99.90
18218;DHT22;9234;49.344;11.120;2023-02-21T04:13:20;1.40;99.90
18218;DHT22;9234;49.344;11.120;2023-02-21T04:15:50;1.40;99.90
18218;DHT22;9234;49.344;11.120;2023-02-21T04:18:20;1.50;99.90
18218;DHT22;9234;49.344;11.120;2023-02-21T04:20:50;1.50;99.90
18218;DHT22;9234;49.344;11.120;2023-02-21T04:23:20;1.60;99.90
18218;DHT22;9234;49.344;11.120;2023-02-21T04:25:49;1.70;99.90
18218;DHT22;9234;49.344;11.120;2023-02-21T04:28:25;1.80;99.90
18218;DHT22;9234;49.344;11.120;2023-02-21T04:30:53;1.90;99.90
18218;DHT22;9234;49.344;11.120;2023-02-21T04:33:21;2.00;99.90
18218;DHT22;9234;49.344;11.120;2023-02-21T04:35:49;2.00;99.90
18218;DHT22;9234;49.344;11.120;2023-02-21T04:38:24;2.10;99.90
18218;DHT22;9234;49.344;11.120;2023-02-21T04:40:52;2.20;99.90
18218;DHT22;9234;49.344;11.120;2023-02-21T04:43:20;2.30;99.90
18218;DHT22;9234;49.344;11.120;2023-02-21T04:45:49;2.30;99.90
18218;DHT22;9234;49.344;11.120;2023-02-21T04:48:17;2.40;99.90
18218;DHT22;9234;49.344;11.120;2023-02-21T04:50:46;2.40;99.90
18218;DHT22;9234;49.344;11.120;2023-02-21T04:53:14;2.50;99.90
18218;DHT22;9234;49.344;11.120;2023-02-21T04:55:44;2.50;99.90
18218;DHT22;9234;49.344;11.120;2023-02-21T04:58:12;2.60;99.90
18218;DHT22;9234;49.344;11.120;2023-02-21T05:00:40;2.60;99.90
18218;DHT22;9234;49.344;11.120;2023-02-21T05:03:08;2.60;99.90
18218;DHT22;9234;49.344;11.120;2023-02-21T05:05:36;2.70;99.90
18218;DHT22;9234;49.344;11.120;2023-02-21T05:08:04;2.70;99.90
18218;DHT22;9234;49.344;11.120;2023-02-21T05:10:33;2.80;99.90
18218;DHT22;9234;49.344;11.120;2023-02-21T05:13:12;2.80;99.90
18218;DHT22;9234;49.344;11.120;2023-02-21T05:15:41;2.90;99.90
18218;DHT22;9234;49.344;11.120;2023-02-21T05:18:09;2.90;99.90
18218;DHT22;9234;49.344;11.120;2023-02-21T05:20:37;3.00;99.90
18218;DHT22;9234;49.344;11.120;2023-02-21T05:23:06;3.00;99.90
18218;DHT22;9234;49.344;11.120;2023-02-21T05:25:39;3.10;99.90
18218;DHT22;9234;49.344;11.120;2023-02-21T05:28:08;3.10;99.90
18218;DHT22;9234;49.344;11.120;2023-02-21T05:30:37;3.20;99.90
18218;DHT22;9234;49.344;11.120;2023-02-21T05:33:06;3.30;99.90
18218;DHT22;9234;49.344;11.120;2023-02-21T05:35:34;3.30;99.90
18218;DHT22;9234;49.344;11.120;2023-02-21T05:38:02;3.40;99.90
18218;DHT22;9234;49.344;11.120;2023-02-21T05:40:30;3.50;99.90
18218;DHT22;9234;49.344;11.120;2023-02-21T05:42:58;3.50;99.90
18218;DHT22;9234;49.344;11.120;2023-02-21T05:45:26;3.50;99.90
18218;DHT22;9234;49.344;11.120;2023-02-21T05:47:56;3.60;99.90
18218;DHT22;9234;49.344;11.120;2023-02-21T05:50:26;3.60;99.90
18218;DHT22;9234;49.344;11.120;2023-02-21T05:52:54;3.70;99.90
18218;DHT22;9234;49.344;11.120;2023-02-21T05:55:23;3.70;99.90
18218;DHT22;9234;49.344;11.120;2023-02-21T05:57:51;3.80;99.90
18218;DHT22;9234;49.344;11.120;2023-02-21T06:00:20;3.90;99.90
18218;DHT22;9234;49.344;11.120;2023-02-21T06:02:51;3.90;99.90
18218;DHT22;9234;49.344;11.120;2023-02-21T06:05:21;3.90;99.90
18218;DHT22;9234;49.344;11.120;2023-02-21T06:07:50;4.00;99.90
18218;DHT22;9234;49.344;11.120;2023-02-21T06:10:18;4.00;99.90
18218;DHT22;9234;49.344;11.120;2023-02-21T06:12:47;4.10;99.90
18218;DHT22;9234;49.344;11.120;2023-02-21T06:15:15;4.10;99.90
18218;DHT22;9234;49.344;11.120;2023-02-21T06:17:44;4.10;99.90
18218;DHT22;9234;49.344;11.120;2023-02-21T06:20:13;4.20;99.90
18218;DHT22;9234;49.344;11.120;2023-02-21T06:22:43;4.20;99.90
18218;DHT22;9234;49.344;11.120;2023-02-21T06:25:13;4.30;99.90
18218;DHT22;9234;49.344;11.120;2023-02-21T06:27:41;4.30;99.90
18218;DHT22;9234;49.344;11.120;2023-02-21T06:30:11;4.40;99.90
18218;DHT22;9234;49.344;11.120;2023-02-21T06:32:41;4.40;99.90
18218;DHT22;9234;49.344;11.120;2023-02-21T06:35:09;4.50;99.90
18218;DHT22;9234;49.344;11.120;2023-02-21T06:37:39;4.50;99.90
18218;DHT22;9234;49.344;11.120;2023-02-21T06:40:09;4.60;99.90
18218;DHT22;9234;49.344;11.120;2023-02-21T06:42:37;4.60;99.90
18218;DHT22;9234;49.344;11.120;2023-02-21T06:45:06;4.60;99.90
18218;DHT22;9234;49.344;11.120;2023-02-21T06:47:35;4.60;99.90
18218;DHT22;9234;49.344;11.120;2023-02-21T06:50:03;4.70;99.90
18218;DHT22;9234;49.344;11.120;2023-02-21T06:52:35;4.70;99.90
18218;DHT22;9234;49.344;11.120;2023-02-21T06:55:04;4.80;99.90
18218;DHT22;9234;49.344;11.120;2023-02-21T06:57:35;4.90;99.90
18218;DHT22;9234;49.344;11.120;2023-02-21T07:00:04;5.00;99.90
18218;DHT22;9234;49.344;11.120;2023-02-21T07:02:33;5.10;99.90
18218;DHT22;9234;49.344;11.120;2023-02-21T07:05:01;5.10;99.90
18218;DHT22;9234;49.344;11.120;2023-02-21T07:07:29;5.20;99.90
18218;DHT22;9234;49.344;11.120;2023-02-21T07:09:57;5.30;99.90
18218;DHT22;9234;49.344;11.120;2023-02-21T07:12:25;5.40;99.90
18218;DHT22;9234;49.344;11.120;2023-02-21T07:14:55;5.50;99.90
18218;DHT22;9234;49.344;11.120;2023-02-21T07:17:23;5.50;99.90
18218;DHT22;9234;49.344;11.120;2023-02-21T07:19:51;5.60;99.90
18218;DHT22;9234;49.344;11.120;2023-02-21T07:22:19;5.70;99.90
18218;DHT22;9234;49.344;11.120;2023-02-21T07:24:51;5.80;99.90
18218;DHT22;9234;49.344;11.120;2023-02-21T07:27:20;5.80;99.90
18218;DHT22;9234;49.344;11.120;2023-02-21T07:29:49;5.90;99.90
18218;DHT22;9234;49.344;11.120;2023-02-21T07:32:19;6.00;99.90
18218;DHT22;9234;49.344;11.120;2023-02-21T07:34:48;6.10;99.90
18218;DHT22;9234;49.344;11.120;2023-02-21T07:37:16;6.10;99.90
18218;DHT22;9234;49.344;11.120;2023-02-21T07:39:44;6.20;99.90
18218;DHT22;9234;49.344;11.120;2023-02-21T07:42:12;6.30;99.90
18218;DHT22;9234;49.344;11.120;2023-02-21T07:44:44;6.40;99.90
18218;DHT22;9234;49.344;11.120;2023-02-21T07:47:13;6.50;99.90
18218;DHT22;9234;49.344;11.120;2023-02-21T07:49:43;6.60;99.90
18218;DHT22;9234;49.344;11.120;2023-02-21T07:52:11;6.70;99.90
18218;DHT22;9234;49.344;11.120;2023-02-21T07:54:39;6.80;99.90
18218;DHT22;9234;49.344;11.120;2023-02-21T07:57:07;6.90;99.90
18218;DHT22;9234;49.344;11.120;2023-02-21T07:59:35;7.00;99.90
18218;DHT22;9234;49.344;11.120;2023-02-21T08:02:03;7.10;99.90
18218;DHT22;9234;49.344;11.120;2023-02-21T08:04:32;7.20;99.90
18218;DHT22;9234;49.344;11.120;2023-02-21T08:07:02;7.20;99.90
18218;DHT22;9234;49.344;11.120;2023-02-21T08:09:32;7.30;99.90
18218;DHT22;9234;49.344;11.120;2023-02-21T08:12:00;7.40;99.90
18218;DHT22;9234;49.344;11.120;2023-02-21T08:14:28;7.50;99.90
18218;DHT22;9234;49.344;11.120;2023-02-21T08:16:57;7.60;99.90
18218;DHT22;9234;49.344;11.120;2023-02-21T08:19:25;7.70;99.90
18218;DHT22;9234;49.344;11.120;2023-02-21T08:21:53;7.80;99.90
18218;DHT22;9234;49.344;11.120;2023-02-21T08:24:22;7.90;99.90
18218;DHT22;9234;49.344;11.120;2023-02-21T08:26:51;8.00;99.90
18218;DHT22;9234;49.344;11.120;2023-02-21T08:29:21;8.10;99.90
18218;DHT22;9234;49.344;11.120;2023-02-21T08:31:49;8.10;99.90
18218;DHT22;9234;49.344;11.120;2023-02-21T08:34:17;8.20;99.90
18218;DHT22;9234;49.344;11.120;2023-02-21T08:36:45;8.20;99.90
18218;DHT22;9234;49.344;11.120;2023-02-21T08:39:13;8.20;99.90
18218;DHT22;9234;49.344;11.120;2023-02-21T08:41:44;8.20;99.90
18218;DHT22;9234;49.344;11.120;2023-02-21T08:44:15;8.30;99.90
18218;DHT22;9234;49.344;11.120;2023-02-21T08:46:44;8.30;99.90
18218;DHT22;9234;49.344;11.120;2023-02-21T08:49:15;8.40;99.90
18218;DHT22;9234;49.344;11.120;2023-02-21T08:51:43;8.40;99.90
18218;DHT22;9234;49.344;11.120;2023-02-21T08:54:11;8.50;99.90
18218;DHT22;9234;49.344;11.120;2023-02-21T08:56:40;8.60;99.90
18218;DHT22;9234;49.344;11.120;2023-02-21T08:59:09;8.70;99.90
18218;DHT22;9234;49.344;11.120;2023-02-21T09:01:37;8.90;99.90
18218;DHT22;9234;49.344;11.120;2023-02-21T09:04:06;9.10;99.90
18218;DHT22;9234;49.344;11.120;2023-02-21T09:06:34;9.30;99.90
18218;DHT22;9234;49.344;11.120;2023-02-21T09:09:02;9.50;99.90
18218;DHT22;9234;49.344;11.120;2023-02-21T09:11:30;9.70;99.90
18218;DHT22;9234;49.344;11.120;2023-02-21T09:13:58;9.90;99.90
18218;DHT22;9234;49.344;11.120;2023-02-21T09:16:28;10.10;99.90
18218;DHT22;9234;49.344;11.120;2023-02-21T09:18:57;10.30;99.90
18218;DHT22;9234;49.344;11.120;2023-02-21T09:21:27;10.40;99.90
18218;DHT22;9234;49.344;11.120;2023-02-21T09:23:55;10.50;99.90
18218;DHT22;9234;49.344;11.120;2023-02-21T09:26:25;10.60;99.90
18218;DHT22;9234;49.344;11.120;2023-02-21T09:28:57;10.70;99.90
18218;DHT22;9234;49.344;11.120;2023-02-21T09:31:26;10.80;99.90
18218;DHT22;9234;49.344;11.120;2023-02-21T09:33:55;10.80;99.90
18218;DHT22;9234;49.344;11.120;2023-02-21T09:36:24;11.00;99.90
18218;DHT22;9234;49.344;11.120;2023-02-21T09:38:52;11.10;99.90
18218;DHT22;9234;49.344;11.120;2023-02-21T09:41:20;11.30;99.90
18218;DHT22;9234;49.344;11.120;2023-02-21T09:43:50;11.40;99.90
18218;DHT22;9234;49.344;11.120;2023-02-21T09:46:28;11.50;99.90
18218;DHT22;9234;49.344;11.120;2023-02-21T09:49:02;11.60;99.90
18218;DHT22;9234;49.344;11.120;2023-02-21T09:51:34;11.70;99.90
18218;DHT22;9234;49.344;11.120;2023-02-21T09:54:14;11.80;99.90
18218;DHT22;9234;49.344;11.120;2023-02-21T09:56:46;11.90;99.90
18218;DHT22;9234;49.344;11.120;2023-02-21T09:59:14;12.00;99.90
18218;DHT22;9234;49.344;11.120;2023-02-21T10:01:58;12.20;99.90
18218;DHT22;9234;49.344;11.120;2023-02-21T10:04:55;12.50;99.90
18218;DHT22;9234;49.344;11.120;2023-02-21T10:07:37;12.80;99.90
18218;DHT22;9234;49.344;11.120;2023-02-21T10:10:12;13.00;99.90
18218;DHT22;9234;49.344;11.120;2023-02-21T10:12:47;13.30;99.90
18218;DHT22;9234;49.344;11.120;2023-02-21T10:18:24;13.60;99.90
18218;DHT22;9234;49.344;11.120;2023-02-21T10:21:00;13.80;99.90
18218;DHT22;9234;49.344;11.120;2023-02-21T10:23:36;13.80;99.90
18218;DHT22;9234;49.344;11.120;2023-02-21T10:26:09;13.90;99.90
18218;DHT22;9234;49.344;11.120;2023-02-21T10:28:40;13.90;99.90
18218;DHT22;9234;49.344;11.120;2023-02-21T10:31:13;14.00;99.90
18218;DHT22;9234;49.344;11.120;2023-02-21T10:33:46;14.10;99.90
18218;DHT22;9234;49.344;11.120;2023-02-21T10:36:17;14.10;99.90
18218;DHT22;9234;49.344;11.120;2023-02-21T10:38:54;14.10;99.90
18218;DHT22;9234;49.344;11.120;2023-02-21T10:41:28;14.10;99.90
18218;DHT22;9234;49.344;11.120;2023-02-21T10:44:02;14.10;99.90
18218;DHT22;9234;49.344;11.120;2023-02-21T10:46:39;14.30;99.90
18218;DHT22;9234;49.344;11.120;2023-02-21T10:49:32;14.30;99.90
18218;DHT22;9234;49.344;11.120;2023-02-21T10:52:08;14.20;99.90
18218;DHT22;9234;49.344;11.120;2023-02-21T10:54:38;14.20;99.90
18218;DHT22;9234;49.344;11.120;2023-02-21T10:57:12;14.10;99.90
18218;DHT22;9234;49.344;11.120;2023-02-21T10:59:47;14.00;99.90
18218;DHT22;9234;49.344;11.120;2023-02-21T11:02:32;14.00;99.90
18218;DHT22;9234;49.344;11.120;2023-02-21T11:05:10;14.10;99.90
18218;DHT22;9234;49.344;11.120;2023-02-21T11:07:42;14.10;99.90
18218;DHT22;9234;49.344;11.120;2023-02-21T11:10:27;14.20;99.90
18218;DHT22;9234;49.344;11.120;2023-02-21T11:13:04;14.30;99.90
18218;DHT22;9234;49.344;11.120;2023-02-21T11:15:36;14.50;99.90
18218;DHT22;9234;49.344;11.120;2023-02-21T11:18:17;14.60;99.90
18218;DHT22;9234;49.344;11.120;2023-02-21T11:20:52;14.70;99.90
18218;DHT22;9234;49.344;11.120;2023-02-21T11:23:23;14.80;99.90
18218;DHT22;9234;49.344;11.120;2023-02-21T11:25:59;15.00;99.90
18218;DHT22;9234;49.344;11.120;2023-02-21T11:28:36;15.10;99.90
18218;DHT22;9234;49.344;11.120;2023-02-21T11:31:15;15.30;99.90
18218;DHT22;9234;49.344;11.120;2023-02-21T11:33:51;15.40;99.90
18218;DHT22;9234;49.344;11.120;2023-02-21T11:36:28;15.40;99.90
18218;DHT22;9234;49.344;11.120;2023-02-21T11:39:03;15.40;99.90
18218;DHT22;9234;49.344;11.120;2023-02-21T11:41:45;15.40;99.90
18218;DHT22;9234;49.344;11.120;2023-02-21T11:44:26;15.40;99.90
18218;DHT22;9234;49.344;11.120;2023-02-21T11:47:13;15.40;99.90
18218;DHT22;9234;49.344;11.120;2023-02-21T11:49:53;15.40;99.90
18218;DHT22;9234;49.344;11.120;2023-02-21T11:52:32;15.30;99.90
18218;DHT22;9234;49.344;11.120;2023-02-21T11:55:12;15.30;99.90
18218;DHT22;9234;49.344;11.120;2023-02-21T11:57:47;15.20;99.90
18218;DHT22;9234;49.344;11.120;2023-02-21T12:00:29;15.20;99.90
18218;DHT22;9234;49.344;11.120;2023-02-21T12:03:26;15.30;99.90
18218;DHT22;9234;49.344;11.120;2023-02-21T12:06:14;15.50;99.90
18218;DHT22;9234;49.344;11.120;2023-02-21T12:08:51;15.60;99.90
18218;DHT22;9234;49.344;11.120;2023-02-21T12:11:44;15.70;99.90
18218;DHT22;9234;49.344;11.120;2023-02-21T12:14:34;15.80;99.90
18218;DHT22;9234;49.344;11.120;2023-02-21T12:17:20;16.00;99.90
18218;DHT22;9234;49.344;11.120;2023-02-21T12:20:07;16.30;99.90
18218;DHT22;9234;49.344;11.120;2023-02-21T12:23:07;16.60;99.90
18218;DHT22;9234;49.344;11.120;2023-02-21T12:25:54;16.80;99.90
18218;DHT22;9234;49.344;11.120;2023-02-21T12:28:45;16.80;99.90
18218;DHT22;9234;49.344;11.120;2023-02-21T13:01:42;17.30;99.90
18218;DHT22;9234;49.344;11.120;2023-02-21T13:04:21;17.40;99.90
18218;DHT22;9234;49.344;11.120;2023-02-21T13:07:01;17.70;99.90
18218;DHT22;9234;49.344;11.120;2023-02-21T13:09:44;18.00;99.90
18218;DHT22;9234;49.344;11.120;2023-02-21T13:12:19;18.30;99.90
18218;DHT22;9234;49.344;11.120;2023-02-21T13:14:53;18.70;99.90
18218;DHT22;9234;49.344;11.120;2023-02-21T13:17:26;18.80;99.90
18218;DHT22;9234;49.344;11.120;2023-02-21T13:20:00;19.10;99.20
18218;DHT22;9234;49.344;11.120;2023-02-21T13:29:37;19.70;96.20
18218;DHT22;9234;49.344;11.120;2023-02-21T13:32:12;19.00;96.90
18218;DHT22;9234;49.344;11.120;2023-02-21T13:34:57;18.80;97.80
18218;DHT22;9234;49.344;11.120;2023-02-21T13:37:30;18.70;98.20
18218;DHT22;9234;49.344;11.120;2023-02-21T13:40:06;18.50;98.20
18218;DHT22;9234;49.344;11.120;2023-02-21T13:42:47;18.20;98.70
18218;DHT22;9234;49.344;11.120;2023-02-21T13:45:21;18.00;98.70
18218;DHT22;9234;49.344;11.120;2023-02-21T13:48:18;17.70;99.20
18218;DHT22;9234;49.344;11.120;2023-02-21T13:50:55;17.70;99.70
18218;DHT22;9234;49.344;11.120;2023-02-21T13:53:26;17.50;99.70
18218;DHT22;9234;49.344;11.120;2023-02-21T13:59:32;17.30;99.90
18218;DHT22;9234;49.344;11.120;2023-02-21T14:02:29;17.00;99.90
18218;DHT22;9234;49.344;11.120;2023-02-21T14:05:04;16.70;99.90
18218;DHT22;9234;49.344;11.120;2023-02-21T14:07:54;16.70;99.90
18218;DHT22;9234;49.344;11.120;2023-02-21T14:10:42;17.00;99.90
18218;DHT22;9234;49.344;11.120;2023-02-21T14:13:21;17.30;99.90
18218;DHT22;9234;49.344;11.120;2023-02-21T14:15:57;17.70;99.90
18218;DHT22;9234;49.344;11.120;2023-02-21T14:18:29;18.10;99.90
18218;DHT22;9234;49.344;11.120;2023-02-21T14:21:08;18.40;99.90
18218;DHT22;9234;49.344;11.120;2023-02-21T14:23:46;18.50;99.90
18218;DHT22;9234;49.344;11.120;2023-02-21T14:26:37;18.40;99.40
18218;DHT22;9234;49.344;11.120;2023-02-21T14:29:27;18.30;99.20
18218;DHT22;9234;49.344;11.120;2023-02-21T14:32:22;18.10;99.50
18218;DHT22;9234;49.344;11.120;2023-02-21T14:34:56;17.90;99.90
18218;DHT22;9234;49.344;11.120;2023-02-21T14:37:32;18.00;99.90
18218;DHT22;9234;49.344;11.120;2023-02-21T14:40:18;18.10;99.90
18218;DHT22;9234;49.344;11.120;2023-02-21T14:43:09;18.20;99.40
18218;DHT22;9234;49.344;11.120;2023-02-21T14:45:58;18.10;99.20
18218;DHT22;9234;49.344;11.120;2023-02-21T14:52:14;18.00;99.70
18218;DHT22;9234;49.344;11.120;2023-02-21T14:58:31;18.50;99.90
18218;DHT22;9234;49.344;11.120;2023-02-21T15:01:15;18.70;98.80
18218;DHT22;9234;49.344;11.120;2023-02-21T15:04:07;18.50;98.50
18218;DHT22;9234;49.344;11.120;2023-02-21T15:06:44;18.40;98.50
18218;DHT22;9234;49.344;11.120;2023-02-21T15:09:26;18.20;98.70
18218;DHT22;9234;49.344;11.120;2023-02-21T15:11:57;18.10;99.00
18218;DHT22;9234;49.344;11.120;2023-02-21T15:14:28;18.00;99.20
18218;DHT22;9234;49.344;11.120;2023-02-21T15:17:11;17.80;99.30
18218;DHT22;9234;49.344;11.120;2023-02-21T15:19:43;17.70;99.90
18218;DHT22;9234;49.344;11.120;2023-02-21T15:22:15;17.70;99.90
18218;DHT22;9234;49.344;11.120;2023-02-21T15:25:11;18.10;99.90
18218;DHT22;9234;49.344;11.120;2023-02-21T15:27:58;18.40;99.20
18218;DHT22;9234;49.344;11.120;2023-02-21T15:30:35;18.60;99.00
18218;DHT22;9234;49.344;11.120;2023-02-21T15:33:11;18.70;98.70
18218;DHT22;9234;49.344;11.120;2023-02-21T15:35:47;18.70;98.10
18218;DHT22;9234;49.344;11.120;2023-02-21T15:38:22;18.50;98.00
18218;DHT22;9234;49.344;11.120;2023-02-21T15:41:04;18.20;98.40
18218;DHT22;9234;49.344;11.120;2023-02-21T15:43:46;18.00;98.70
18218;DHT22;9234;49.344;11.120;2023-02-21T15:46:21;17.80;99.00
18218;DHT22;9234;49.344;11.120;2023-02-21T15:48:54;17.60;99.60
18218;DHT22;9234;49.344;11.120;2023-02-21T15:51:26;17.50;99.50
18218;DHT22;9234;49.344;11.120;2023-02-21T15:54:23;17.30;99.70
18218;DHT22;9234;49.344;11.120;2023-02-21T15:57:02;17.20;99.90
18218;DHT22;9234;49.344;11.120;2023-02-21T15:59:35;17.00;99.90
18218;DHT22;9234;49.344;11.120;2023-02-21T16:02:19;16.80;99.90
18218;DHT22;9234;49.344;11.120;2023-02-21T16:04:51;16.70;99.90
18218;DHT22;9234;49.344;11.120;2023-02-21T16:07:24;16.60;99.90
18218;DHT22;9234;49.344;11.120;2023-02-21T16:09:59;16.50;99.90
18218;DHT22;9234;49.344;11.120;2023-02-21T16:12:35;16.30;99.90
18218;DHT22;9234;49.344;11.120;2023-02-21T16:15:17;16.20;99.90
18218;DHT22;9234;49.344;11.120;2023-02-21T16:17:54;16.00;99.90
18218;DHT22;9234;49.344;11.120;2023-02-21T16:20:28;15.80;99.90
18218;DHT22;9234;49.344;11.120;2023-02-21T16:23:13;15.70;99.90
18218;DHT22;9234;49.344;11.120;2023-02-21T16:26:01;15.50;99.90
18218;DHT22;9234;49.344;11.120;2023-02-21T16:28:32;15.30;99.90
18218;DHT22;9234;49.344;11.120;2023-02-21T16:31:02;15.10;99.90
18218;DHT22;9234;49.344;11.120;2023-02-21T16:33:34;14.90;99.90
18218;DHT22;9234;49.344;11.120;2023-02-21T16:36:05;14.70;99.90
18218;DHT22;9234;49.344;11.120;2023-02-21T16:38:36;14.50;99.90
18218;DHT22;9234;49.344;11.120;2023-02-21T16:41:04;14.30;99.90
18218;DHT22;9234;49.344;11.120;2023-02-21T16:43:32;14.10;99.90
18218;DHT22;9234;49.344;11.120;2023-02-21T16:46:00;13.90;99.90
18218;DHT22;9234;49.344;11.120;2023-02-21T16:48:29;13.70;99.90
18218;DHT22;9234;49.344;11.120;2023-02-21T16:51:02;13.60;99.90
18218;DHT22;9234;49.344;11.120;2023-02-21T16:53:32;13.30;99.90
18218;DHT22;9234;49.344;11.120;2023-02-21T16:56:00;13.20;99.90
18218;DHT22;9234;49.344;11.120;2023-02-21T16:58:32;13.00;99.90
18218;DHT22;9234;49.344;11.120;2023-02-21T17:01:05;12.90;99.90
18218;DHT22;9234;49.344;11.120;2023-02-21T17:03:35;12.70;99.90
18218;DHT22;9234;49.344;11.120;2023-02-21T17:06:05;12.50;99.90
18218;DHT22;9234;49.344;11.120;2023-02-21T17:08:33;12.40;99.90
18218;DHT22;9234;49.344;11.120;2023-02-21T17:11:01;12.20;99.90
18218;DHT22;9234;49.344;11.120;2023-02-21T17:13:30;12.10;99.90
18218;DHT22;9234;49.344;11.120;2023-02-21T17:15:58;11.90;99.90
18218;DHT22;9234;49.344;11.120;2023-02-21T17:18:26;11.80;99.90
18218;DHT22;9234;49.344;11.120;2023-02-21T17:20:57;11.70;99.90
18218;DHT22;9234;49.344;11.120;2023-02-21T17:23:26;11.60;99.90
18218;DHT22;9234;49.344;11.120;2023-02-21T17:25:55;11.40;99.90
18218;DHT22;9234;49.344;11.120;2023-02-21T17:28:23;11.30;99.90
18218;DHT22;9234;49.344;11.120;2023-02-21T17:30:52;11.20;99.90